Flight Track Log - Related Links

Times and Time Zones

All times are in EDT time to prevent confusion due to time zone crossing. See the SWA1855 flight status page for this flight to view local times or setup timezone preferences in your user account.

Time Position Orientation Groundspeed Altitude Reporting Facility
EDT Latitude Longitude Course Direction KTS MPH feet Rate Location/Type
Sun 02:05:06 PM 34.1325 -118.4264 338° Northwest 236 272 5,600  Level Los Angeles Center
Sun 02:06:08 PM 34.1908 -118.4547 338° Northwest 249 287 8,100 2,419 Climbing Los Angeles Center
Sun 02:07:10 PM 34.2664 -118.4947 336° Northwest 303 349 10,600 2,544 Climbing Los Angeles Center
Sun 02:08:13 PM 34.3408 -118.5472 330° Northwest 311 358 13,400 1,632 Climbing Los Angeles Center
Sun 02:09:15 PM 34.4200 -118.5992 332° Northwest 322 371 14,000 1,790 Climbing Los Angeles Center
Sun 02:10:17 PM 34.5000 -118.6539 331° Northwest 326 375 17,100 1,742 Climbing Los Angeles Center
Sun 02:11:19 PM 34.6078 -118.7267 331° Northwest 393 452 17,600 1,258 Climbing Los Angeles Center
Sun 02:12:21 PM 34.7086 -118.7969 330° Northwest 416 479 19,700 1,839 Climbing Los Angeles Center
Sun 02:13:23 PM 34.8111 -118.8706 329° Northwest 424 488 21,400 1,694 Climbing Los Angeles Center
Sun 02:14:25 PM 34.9225 -118.9753 322° Northwest 446 513 23,200 1,742 Climbing Los Angeles Center
Sun 02:15:27 PM 35.0200 -119.0739 320° Northwest 455 524 25,000 1,548 Climbing Los Angeles Center
Sun 02:16:29 PM 35.1219 -119.1725 322° Northwest 465 535 26,400 1,597 Climbing Los Angeles Center
Sun 02:17:31 PM 35.2261 -119.2725 322° Northwest 475 547 28,300 1,632 Climbing Los Angeles Center
Sun 02:18:34 PM 35.3064 -119.3528 321° Northwest 469 540 29,800 1,536 Climbing Los Angeles Center
Sun 02:19:36 PM 35.4253 -119.4708 321° Northwest 463 533 31,500 1,645 Climbing Los Angeles Center
Sun 02:20:38 PM 35.5447 -119.5892 321° Northwest 462 532 33,200 1,344 Climbing Los Angeles Center
Sun 02:21:41 PM 35.6419 -119.6853 321° Northwest 460 529 34,300 960 Climbing Oakland Center
Sun 02:22:43 PM 35.7414 -119.7856 321° Northwest 465 535 35,200 823 Climbing Oakland Center
Sun 02:23:45 PM 35.8406 -119.8847 321° Northwest 465 535 36,000 387 Climbing Oakland Center
Sun 02:24:47 PM 35.9583 -120.0053 320° Northwest 462 532 36,000  Level Oakland Center
Sun 02:25:48 PM 36.0567 -120.1036 321° Northwest 458 527 36,000  Level Oakland Center
Sun 02:26:50 PM 36.1567 -120.2050 321° Northwest 465 535 36,000  Level Oakland Center
Sun 02:27:52 PM 36.2544 -120.3067 320° Northwest 463 533 36,000  Level Oakland Center
Sun 02:28:53 PM 36.3544 -120.4081 321° Northwest 464 534 36,000 -1,073 Level Oakland Center
Sun 02:29:55 PM 36.4536 -120.5094 321° Northwest 465 535 33,800 -3,000 Descending Oakland Center
Sun 02:30:57 PM 36.5736 -120.6328 320° Northwest 469 540 29,800 -3,435 Descending Oakland Center
Sun 02:31:59 PM 36.6739 -120.7344 321° Northwest 468 539 26,700 -2,732 Descending Oakland Center
Sun 02:33:00 PM 36.7672 -120.8394 318° Northwest 456 525 24,200 -2,390 Descending Oakland Center
Sun 02:34:02 PM 36.8547 -120.9408 317° Northwest 436 502 21,800 -2,304 Descending Oakland Center
Sun 02:35:05 PM 36.9411 -121.0375 318° Northwest 421 484 19,400 -2,274 Descending Oakland Center
Sun 02:36:06 PM 37.0219 -121.1336 317° Northwest 406 467 17,100 -2,361 Descending Oakland Center
Sun 02:37:07 PM 37.1014 -121.2244 318° Northwest 390 449 14,600 -2,585 Descending Oakland Center
Sun 02:38:09 PM 37.1933 -121.3325 317° Northwest 378 435 11,800 -2,081 Descending Oakland Center
Sun 02:39:11 PM 37.2681 -121.4175 318° Northwest 364 419 10,300 -968 Descending Oakland Center
Sun 02:40:13 PM 37.3317 -121.4897 318° Northwest 311 358 9,800 -732 Descending Oakland Center
Sun 02:41:14 PM 37.3875 -121.5567 316° Northwest 299 344 8,800 -927 Descending Oakland Center
Sun 02:42:16 PM 37.4483 -121.6272 317° Northwest 299 344 7,900 -1,016 Descending Oakland Center
Sun 02:43:18 PM 37.5211 -121.7114 317° Northwest 296 341 6,700 -1,065 Descending Oakland Center
Sun 02:44:20 PM 37.5397 -121.8044 284° West 292 336 5,700 -878 Descending Oakland Center
Sun 02:45:21 PM 37.5458 -121.9019 275° West 281 323 4,900 -634 Descending Oakland Center
Sun 02:46:23 PM 37.5483 -121.9881 272° West 255 293 4,400 -726 Descending Oakland Center
Sun 02:47:25 PM 37.5894 -122.0472 311° West 229 264 3,400 -1,016 Descending Oakland Center
Sun 02:48:27 PM 37.6261 -122.1036 309° West 219 252 2,300 -927 Descending Oakland Center
Sun 02:49:28 PM 37.6533 -122.1428 311° West 178 205 1,500 -829 Descending Oakland Center
Sun 02:50:30 PM 37.6833 -122.1886 310° West 152 175 600 8,952 Descending Oakland Center
Sun 02:51:32 PM 37.7075 -122.2244 310° West 142 163 20,000 18,774 Climbing Oakland Center
Sun 02:53:00 PM 37.7167 -122.2167 270° West  Level FlightAware Approximate
Sun 03:00:00 PM 37.7213 -122.2207 270° West  Level Estimated

Login

Don't have an account? Register now (free) for customized features, flight alerts, and more!